Finales Départementales des Jeunes

Compétition Départementale

LENS

Le Dimanche 02 Juin 2013

Bassin de 50m

50 Nage Libre Dames

Séries

Nom Année Temps Pts Club Pays
1 REMY Adeline 2000 0:30:43 1025 STADE BÉTHUNE PÉLICAN CLUB FRA
2 DUHAMEL Cyrielle 2000 0:30:80 1002 SN LENS FRA
3 CABO Amelie 2001 0:31:60 954 RACING CLUB ARRAS FRA
4 CASTELAN Leana 2001 0:31:83 941 BERCK NATATION FRA
5 PROUST Zélie 2000 0:32:16 922 USO BRUAY-LA-BUISSIERE FRA
6 KOUADIO PATINIER Lucie 2000 0:32:25 917 BERCK NATATION FRA
7 LUCAS Rebecca 2000 0:32:44 906 CALAIS NATATION FRA
8 VANHOYE Célia 2000 0:32:66 893 STADE BÉTHUNE PÉLICAN CLUB FRA
9 FICHAUX Ambre 2001 0:32:71 890 RACING CLUB ARRAS FRA
10 BATELLI Maeva 2000 0:32:74 888 SN LENS FRA
11 THERY Celine 2000 0:32:75 888 ASL CANETONS LILLERS FRA
12 KONRAD Lory 2000 0:32:80 885 CN COURRIÈRES FRA
13 DE PAOLI Fiona 2000 0:32:95 877 RACING CLUB ARRAS FRA
14 HAMILLE Lena 2001 0:33:01 873 US MONTREUIL-SUR-MER FRA
15 CADIOU Chloe 2000 0:33:09 869 STADE BÉTHUNE PÉLICAN CLUB FRA
16 DELATTRE Garance 2002 0:33:20 863 DAUPHINS ST-OMER FRA
17 NOYELLE Margaux 2000 0:33:33 855 BERCK NATATION FRA
18 BERDIN Emma 2000 0:33:42 850 CALAIS NATATION FRA
19 COUPIN Estelle 2001 0:33:45 849 CALAIS NATATION FRA
20 MARCINIAK Marie 2001 0:33:57 842 SN LENS FRA
21 VANDERZYPPE Jeanne 2000 0:33:77 831 BERCK NATATION FRA
22 DENUDT Juliette 2000 0:33:78 830 CALAIS NATATION FRA
23 LEFEBVRE Sofia 2000 0:33:87 825 RACING CLUB ARRAS FRA
24 LENGLEN Julie 2000 0:33:93 822 CALAIS NATATION FRA
25 ROCHE-MATHON Leah 2001 0:34:10 813 RACING CLUB ARRAS FRA
26 GRAS Blandine 2001 0:34:20 807 CN DIVION FRA
27 DECOONINCK Lea 2000 0:34:22 806 CN COURRIÈRES FRA
28 NOWACZYK Lison 2003 0:34:27 804 AUCHEL NATATION FRA
29 TRENEL Maurine 2001 0:34:52 790 RACING CLUB ARRAS FRA
30 VAUCHEL Emma 2000 0:34:55 789 DAUPHINS ST-OMER FRA
31 COULPIER Chana 2001 0:34:66 783 BERCK NATATION FRA
32 ZAJAC Margot 2001 0:34:78 776 STADE BÉTHUNE PÉLICAN CLUB FRA
33 CIURLIK Pauline 2000 0:34:81 775 DAUPHINS ST-OMER FRA
34 BRUTIER Clara 2000 0:34:81 775 CALAIS NATATION FRA
35 LUX Angéline 2001 0:34:93 768 CN COURRIÈRES FRA
36 BERRABAH Myriem 2001 0:34:94 768 CN HÉNIN-BEAUMONT FRA
37 LEURS Chloe 2001 0:34:95 767 SN LENS FRA
38 WALLART Agathe 2000 0:34:97 766 SN LENS FRA
39 PILLE Emma 2000 0:34:98 766 RACING CLUB ARRAS FRA
40 QUEVA Camille 2002 0:35:09 760 RACING CLUB ARRAS FRA
41 CATEZ Oceane 2001 0:35:10 759 STADE BÉTHUNE PÉLICAN CLUB FRA
42 NOTEBAERT Elsa 2001 0:35:11 759 SN LENS FRA
43 LANCEZ Emma 2001 0:35:19 755 RACING CLUB ARRAS FRA
44 DELABRE Justine 2000 0:35:31 748 SN LENS FRA
45 SERGENT Bulle 2000 0:35:40 744 DAUPHINS ST-OMER FRA
46 DELATTRE Lison 2000 0:35:42 743 DAUPHINS ST-OMER FRA
47 ROUSSEL Marie 2002 0:35:45 741 ENC ACHICOURT FRA
48 LEFEBVRE Albane 2000 0:35:65 731 STADE BÉTHUNE PÉLICAN CLUB FRA
49 CORION Florine 2000 0:35:77 725 CALAIS NATATION FRA
50 TIRMARCHE Clémence 2001 0:35:96 715 STADE BÉTHUNE PÉLICAN CLUB FRA
51 MORTIER Philippine 2002 0:35:98 714 BERCK NATATION FRA
52 COLLIER Eva 2003 0:36:09 708 CALAIS NATATION FRA
53 DELPLANQUE Claire 2002 0:36:10 708 CN HÉNIN-BEAUMONT FRA
54 CARNEZ Oceane 2002 0:36:14 706 CN DIVION FRA
55 VIDELAINE Manuella 2002 0:36:15 705 ASL CANETONS LILLERS FRA
56 MEDJAHED Eliana 2000 0:36:15 705 HIPPO. MONTIGNY-EN-GOHELLE FRA
57 DECOUVELAERE Manon 2001 0:36:30 698 STADE BÉTHUNE PÉLICAN CLUB FRA
58 HENOCQ Charlotte 2001 0:36:46 690 RACING CLUB ARRAS FRA
59 CAUCHARD Axelle 2002 0:36:71 677 ASL CANETONS LILLERS FRA
60 ARZUL Agathe 2002 0:36:85 670 RACING CLUB ARRAS FRA
61 ABACHIN Apolline 2001 0:36:88 669 CALAIS NATATION FRA
62 GHYS Chloé 2002 0:37:12 657 TRITONS LUMBRES FRA
63 WACKENS Capucine 2001 0:37:14 656 SN LENS FRA
64 RIBEIRO Léa 2001 0:37:35 646 DAUPHINS ST-OMER FRA
65 MATHUREL Valentine 2003 0:37:51 638 US MONTREUIL-SUR-MER FRA
66 RÉMY Capucine 2002 0:37:53 637 CN FREVENT FRA
67 WAREMBOURG Eulalie 2002 0:37:63 632 RACING CLUB ARRAS FRA
68 NOSKOWIAK Mathilde 2001 0:37:65 631 US MONTREUIL-SUR-MER FRA
69 BERTELOOT Louise 2001 0:38:04 613 TRITONS LUMBRES FRA
70 LORGNIER Bérénice 2001 0:38:12 609 TRITONS LUMBRES FRA
71 OLESINSKI Anaïs 2002 0:38:13 609 USO BRUAY-LA-BUISSIERE FRA
72 HERBAUX-VERMEULEN Anais 2002 0:38:24 603 ENC ACHICOURT FRA
73 LESMARIE Lara 2001 0:38:50 591 SN LENS FRA
74 GIVERN Maëva 2002 0:38:53 590 BERCK NATATION FRA
75 JASINSKI Anya 2003 0:38:64 585 STADE BÉTHUNE PÉLICAN CLUB FRA
76 TROLLE Louise 2001 0:38:68 583 US MONTREUIL-SUR-MER FRA
77 DEWYNTER Solene 2001 0:38:74 580 DAUPHINS ST-OMER FRA
78 TEMPEZ Chloe 2003 0:38:79 578 CN FREVENT FRA
79 DEBRIS Anaëlle 2002 0:38:92 572 BERCK NATATION FRA
80 GALLOIS Clemence 2001 0:38:92 572 ASL CANETONS LILLERS FRA
81 VESIN Romane 2003 0:39:20 559 CN COURRIÈRES FRA
82 DELPLANQUE Justine 2003 0:39:25 557 US MONTREUIL-SUR-MER FRA
83 VILLAYES Olivia 2003 0:39:29 555 SN LENS FRA
84 MARTIN-GARRIN Yoline 2002 0:39:66 539 STADE BÉTHUNE PÉLICAN CLUB FRA
85 LENOIR Anaïs 2003 0:39:90 528 USO BRUAY-LA-BUISSIERE FRA
86 MARINELLI Lucy 2002 0:39:96 526 DAUPHINS ST-OMER FRA
87 DARON Juliette 2002 0:39:98 525 STADE BÉTHUNE PÉLICAN CLUB FRA
88 BOCAERT Camille 2004 0:40:06 521 US MONTREUIL-SUR-MER FRA
89 SGARD LAVIEVILLE Justine 2002 0:40:10 519 CALAIS NATATION FRA
90 BAYARD Kristina 2003 0:40:14 518 DAUPHINS ST-OMER FRA
91 VERHAMME Mallaury 2002 0:40:26 513 US MONTREUIL-SUR-MER FRA
92 JOLY Jennifer 2002 0:40:30 511 CN FREVENT FRA
93 OUKARACHE Lyna 2003 0:40:77 491 CALAIS NATATION FRA
94 CREPIN Léa 2002 0:40:81 489 BERCK NATATION FRA
95 BRIOUL Julie 2004 0:40:92 484 TRITONS LUMBRES FRA
96 DELEMOTTE Marie 2003 0:40:94 484 ASL CANETONS LILLERS FRA
97 LUCAS Raphaëlle 2004 0:41:04 479 CALAIS NATATION FRA
98 DELANNOY Margot 2003 0:41:22 472 DAUPHINS ST-OMER FRA
99 SZUMNY Chloe 2003 0:41:37 466 ASL CANETONS LILLERS FRA
100 HERBAUT Zéline 2002 0:41:58 457 CALAIS NATATION FRA
101 LOVINY Margaux 2003 0:41:67 453 RACING CLUB ARRAS FRA
102 REBAÏ Ines 2002 0:41:81 448 CALAIS NATATION FRA
103 JOETS Clemence 2002 0:41:81 448 STADE BÉTHUNE PÉLICAN CLUB FRA
104 TARADEL Emilie 2002 0:41:99 441 HIPPO. MONTIGNY-EN-GOHELLE FRA
105 DELAIRE Anaelle 2004 0:42:19 433 STADE BÉTHUNE PÉLICAN CLUB FRA
106 DIDIER Maëlle 2003 0:42:41 424 RACING CLUB ARRAS FRA
107 PIJANOWSKI Alexia 2002 0:42:60 417 RACING CLUB ARRAS FRA
108 QUEVA Joséphine 2003 0:42:90 405 US MONTREUIL-SUR-MER FRA
109 COULPIER Taïna 2004 0:43:00 401 BERCK NATATION FRA
110 DELOUX Carla 2003 0:43:13 396 STADE BÉTHUNE PÉLICAN CLUB FRA
111 DELEAU Meline 2003 0:43:26 391 SC BOULOGNE-SUR-MER FRA
112 HAHAD Meriem 2003 0:43:76 373 BERCK NATATION FRA
113 SERDOBBEL Anaelle 2004 0:43:79 371 USO BRUAY-LA-BUISSIERE FRA
114 BOROWSKI Léa 2003 0:43:99 364 CN DIVION FRA
115 LENCLOS Norah 2003 0:44:44 348 DAUPHINS ST-OMER FRA
116 HUCHIN Camille 2003 0:44:52 345 SC BOULOGNE-SUR-MER FRA
117 MAGNIER Adele 2004 0:44:55 344 DAUPHINS ST-OMER FRA
118 CANONNE Louanne 2003 0:45:15 323 SC BOULOGNE-SUR-MER FRA
119 PERRAULT Emma 2003 0:45:30 318 US MONTREUIL-SUR-MER FRA
120 PAWLAK Ambre 2003 0:45:48 312 CN COURRIÈRES FRA
121 WARNAULT Zoé 2002 0:45:94 297 CN FREVENT FRA
122 MORRESI Julie 2003 0:46:45 280 TRITONS LUMBRES FRA
123 LE LAY Alix 2005 0:46:49 279 RACING CLUB ARRAS FRA
124 LOUVET Héloïse 2003 0:46:58 276 CALAIS NATATION FRA
125 LEDUCQ Annette 2004 0:47:27 255 SC BOULOGNE-SUR-MER FRA
126 SAULAY Baptistine 2003 0:47:33 253 RACING CLUB ARRAS FRA
127 GUY Mylene 2004 0:48:13 229 SC BOULOGNE-SUR-MER FRA
128 RODRIGUEZ Juliette 2005 0:50:57 164 US MONTREUIL-SUR-MER FRA
129 COCQUEMAN Marie 2004 0:50:83 158 CN FREVENT FRA
130 MARQUIS Faustine 2004 0:50:93 155 DAUPHINS ST-OMER FRA
RACING CLUB ARRAS